HAZ5103 ZSPD-ZWWW
Flight info
| Callsign | HAZ5103 |
|---|---|
| Flight time | N/A |
| Altitude | 32100 |
| Route | POMOK G330 UNTAN G345 OLRIS R343 HFE B208 ZHO H14 ZS H142 DOVOP W541 OVKAB W94 XFG W213 APESU W197 ANDIM B215 IBANO G470 QTV W99 FKG B215 WUR |
| Aircraft | A339/H-SADE1E2E3GHIJ3J5M1P2RWXY/LB2D1 |
Departure
| Time | N/A |
|---|---|
| Airport | Shanghai Pudong International Airport (ZSPD) |
Arrival
| Time | 2026-04-26 09:42 |
|---|---|
| Airport | Ürümqi Tianshan International Airport (ZWWW) |
| Time | Latitude | Longitude | Altitude | Speed | Heading |
|---|---|---|---|---|---|
| 2026-04-26 09:23 | 43.89149 | 89.39099 | 22169 ft | 372 kts | 295° |
| 2026-04-26 09:23 | 43.90248 | 89.35881 | 21792 ft | 371 kts | 295° |
| 2026-04-26 09:23 | 43.91349 | 89.32654 | 21408 ft | 369 kts | 295° |
| 2026-04-26 09:24 | 43.92441 | 89.29449 | 21040 ft | 366 kts | 295° |
| 2026-04-26 09:24 | 43.93518 | 89.26286 | 20689 ft | 364 kts | 294° |
| 2026-04-26 09:24 | 43.94590 | 89.23135 | 20320 ft | 362 kts | 295° |
| 2026-04-26 09:24 | 43.95654 | 89.20003 | 19957 ft | 360 kts | 294° |
| 2026-04-26 09:25 | 43.96720 | 89.16861 | 19604 ft | 358 kts | 294° |
| 2026-04-26 09:25 | 43.97776 | 89.13744 | 19228 ft | 357 kts | 294° |
| 2026-04-26 09:25 | 43.98823 | 89.10647 | 18843 ft | 356 kts | 294° |
| 2026-04-26 09:25 | 43.99867 | 89.07558 | 18472 ft | 354 kts | 294° |
| 2026-04-26 09:26 | 44.00913 | 89.04459 | 18096 ft | 353 kts | 294° |
| 2026-04-26 09:26 | 44.01940 | 89.01406 | 17728 ft | 351 kts | 294° |
| 2026-04-26 09:26 | 44.02964 | 88.98358 | 17370 ft | 349 kts | 294° |
| 2026-04-26 09:26 | 44.03997 | 88.95283 | 16999 ft | 348 kts | 294° |
| 2026-04-26 09:27 | 44.05010 | 88.92268 | 16636 ft | 346 kts | 294° |
| 2026-04-26 09:27 | 44.06028 | 88.89236 | 16271 ft | 345 kts | 294° |
| 2026-04-26 09:27 | 44.06929 | 88.86176 | 15902 ft | 343 kts | 288° |
| 2026-04-26 09:27 | 44.07608 | 88.83025 | 15544 ft | 341 kts | 283° |
| 2026-04-26 09:28 | 44.08083 | 88.79803 | 15182 ft | 340 kts | 279° |
| 2026-04-26 09:28 | 44.08430 | 88.76723 | 14825 ft | 339 kts | 278° |
| 2026-04-26 09:28 | 44.08788 | 88.73411 | 14465 ft | 337 kts | 278° |
| 2026-04-26 09:28 | 44.09134 | 88.70220 | 14109 ft | 336 kts | 278° |
| 2026-04-26 09:29 | 44.09482 | 88.67016 | 13751 ft | 334 kts | 278° |
| 2026-04-26 09:29 | 44.09823 | 88.63883 | 13407 ft | 332 kts | 278° |
| 2026-04-26 09:29 | 44.10170 | 88.60701 | 13048 ft | 331 kts | 278° |
| 2026-04-26 09:29 | 44.10511 | 88.57577 | 12688 ft | 330 kts | 279° |
| 2026-04-26 09:30 | 44.10858 | 88.54412 | 12297 ft | 331 kts | 279° |
| 2026-04-26 09:30 | 44.11204 | 88.51266 | 11899 ft | 331 kts | 279° |
| 2026-04-26 09:30 | 44.11547 | 88.48124 | 11512 ft | 331 kts | 279° |
| 2026-04-26 09:30 | 44.11893 | 88.44947 | 11108 ft | 332 kts | 279° |
| 2026-04-26 09:31 | 44.12235 | 88.41796 | 10709 ft | 332 kts | 279° |
| 2026-04-26 09:31 | 44.12574 | 88.38657 | 10443 ft | 328 kts | 279° |
| 2026-04-26 09:31 | 44.12906 | 88.35571 | 10378 ft | 316 kts | 279° |
| 2026-04-26 09:31 | 44.13226 | 88.32592 | 10312 ft | 306 kts | 279° |
| 2026-04-26 09:32 | 44.13536 | 88.29720 | 10253 ft | 296 kts | 279° |
| 2026-04-26 09:32 | 44.13833 | 88.26955 | 10202 ft | 286 kts | 279° |
| 2026-04-26 09:32 | 44.14119 | 88.24285 | 10156 ft | 276 kts | 279° |
| 2026-04-26 09:32 | 44.14351 | 88.21706 | 10024 ft | 270 kts | 271° |
| 2026-04-26 09:33 | 44.13876 | 88.19176 | 9626 ft | 277 kts | 244° |
| 2026-04-26 09:33 | 44.12896 | 88.16822 | 9210 ft | 280 kts | 240° |
| 2026-04-26 09:33 | 44.11891 | 88.14532 | 8812 ft | 279 kts | 240° |
| 2026-04-26 09:33 | 44.10898 | 88.12199 | 8397 ft | 279 kts | 241° |
| 2026-04-26 09:34 | 44.09949 | 88.09892 | 7991 ft | 278 kts | 242° |
| 2026-04-26 09:34 | 44.09000 | 88.07526 | 7600 ft | 282 kts | 242° |
| 2026-04-26 09:34 | 44.08065 | 88.05169 | 7208 ft | 277 kts | 243° |
| 2026-04-26 09:34 | 44.07138 | 88.02818 | 6953 ft | 274 kts | 243° |
| 2026-04-26 09:35 | 44.06231 | 88.00507 | 6672 ft | 275 kts | 242° |
| 2026-04-26 09:35 | 44.05313 | 87.98168 | 6401 ft | 275 kts | 242° |
| 2026-04-26 09:35 | 44.04321 | 87.95996 | 6261 ft | 270 kts | 236° |
| 2026-04-26 09:35 | 44.03274 | 87.93971 | 6243 ft | 260 kts | 234° |
| 2026-04-26 09:36 | 44.02311 | 87.91894 | 6206 ft | 250 kts | 244° |
| 2026-04-26 09:36 | 44.01669 | 87.89710 | 6187 ft | 238 kts | 255° |
| 2026-04-26 09:36 | 44.01260 | 87.87522 | 6119 ft | 229 kts | 258° |
| 2026-04-26 09:36 | 44.00892 | 87.85389 | 5886 ft | 229 kts | 257° |
| 2026-04-26 09:37 | 44.00496 | 87.83259 | 5660 ft | 229 kts | 256° |
| 2026-04-26 09:37 | 44.00069 | 87.81144 | 5438 ft | 228 kts | 255° |
| 2026-04-26 09:37 | 43.99619 | 87.79031 | 5215 ft | 227 kts | 255° |
| 2026-04-26 09:37 | 43.99165 | 87.76952 | 5015 ft | 225 kts | 255° |
| 2026-04-26 09:38 | 43.98714 | 87.74907 | 4957 ft | 218 kts | 255° |
| 2026-04-26 09:38 | 43.98278 | 87.72931 | 4945 ft | 210 kts | 255° |
| 2026-04-26 09:38 | 43.97867 | 87.71058 | 4951 ft | 196 kts | 255° |
| 2026-04-26 09:38 | 43.97476 | 87.69266 | 4904 ft | 192 kts | 255° |
| 2026-04-26 09:39 | 43.97095 | 87.67509 | 4677 ft | 192 kts | 255° |
| 2026-04-26 09:39 | 43.96713 | 87.65742 | 4437 ft | 191 kts | 255° |
| 2026-04-26 09:39 | 43.96335 | 87.63994 | 4200 ft | 188 kts | 256° |
| 2026-04-26 09:39 | 43.95968 | 87.62292 | 3958 ft | 181 kts | 256° |
| 2026-04-26 09:40 | 43.95615 | 87.60654 | 3732 ft | 174 kts | 256° |
| 2026-04-26 09:40 | 43.95275 | 87.59068 | 3515 ft | 168 kts | 256° |
| 2026-04-26 09:40 | 43.94949 | 87.57550 | 3309 ft | 161 kts | 256° |
| 2026-04-26 09:40 | 43.94638 | 87.56095 | 3118 ft | 159 kts | 257° |
| 2026-04-26 09:41 | 43.94325 | 87.54630 | 2926 ft | 159 kts | 256° |
| 2026-04-26 09:41 | 43.94011 | 87.53168 | 2708 ft | 158 kts | 257° |
| 2026-04-26 09:41 | 43.93708 | 87.51715 | 2492 ft | 157 kts | 256° |
| 2026-04-26 09:41 | 43.93394 | 87.50259 | 2310 ft | 157 kts | 256° |
| 2026-04-26 09:42 | 43.93085 | 87.48819 | 2150 ft | 153 kts | 256° |
| 2026-04-26 09:42 | 43.92816 | 87.47557 | 2148 ft | 113 kts | 255° |
| 2026-04-26 09:42 | 43.92650 | 87.46774 | 2148 ft | 62 kts | 255° |
| 2026-04-26 09:42 | 43.92546 | 87.46375 | 2148 ft | 28 kts | 236° |
| 2026-04-26 09:43 | 43.92456 | 87.46227 | 2148 ft | 18 kts | 231° |
| 2026-04-26 09:43 | 43.92371 | 87.46098 | 2149 ft | 17 kts | 226° |
| 2026-04-26 09:43 | 43.92302 | 87.45973 | 2149 ft | 11 kts | 236° |
| 2026-04-26 09:43 | 43.92240 | 87.45940 | 2149 ft | 10 kts | 174° |
| 2026-04-26 09:44 | 43.92171 | 87.45965 | 2149 ft | 10 kts | 162° |
| 2026-04-26 09:44 | 43.92098 | 87.45996 | 2149 ft | 11 kts | 162° |
| 2026-04-26 09:44 | 43.92020 | 87.46030 | 2149 ft | 12 kts | 164° |
| 2026-04-26 09:44 | 43.91975 | 87.46083 | 2150 ft | 7 kts | 106° |
| 2026-04-26 09:45 | 43.91981 | 87.46161 | 2150 ft | 8 kts | 76° |
| 2026-04-26 09:45 | 43.92000 | 87.46246 | 2150 ft | 9 kts | 80° |
| 2026-04-26 09:45 | 43.91974 | 87.46308 | 2150 ft | 7 kts | 144° |
| 2026-04-26 09:45 | 43.91923 | 87.46336 | 2150 ft | 8 kts | 165° |
| 2026-04-26 09:46 | 43.91865 | 87.46365 | 2150 ft | 9 kts | 154° |
| 2026-04-26 09:46 | 43.91805 | 87.46405 | 2150 ft | 9 kts | 160° |
| 2026-04-26 09:46 | 43.91737 | 87.46434 | 2150 ft | 10 kts | 163° |
| 2026-04-26 09:46 | 43.91663 | 87.46465 | 2150 ft | 11 kts | 163° |
| 2026-04-26 09:47 | 43.91584 | 87.46498 | 2151 ft | 12 kts | 163° |
| 2026-04-26 09:47 | 43.91500 | 87.46533 | 2151 ft | 12 kts | 163° |
| 2026-04-26 09:47 | 43.91413 | 87.46570 | 2151 ft | 13 kts | 163° |
| 2026-04-26 09:47 | 43.91325 | 87.46606 | 2151 ft | 13 kts | 164° |
| 2026-04-26 09:48 | 43.91276 | 87.46670 | 2151 ft | 9 kts | 97° |
| 2026-04-26 09:48 | 43.91309 | 87.46719 | 2151 ft | 7 kts | 21° |
| 2026-04-26 09:48 | 43.91347 | 87.46770 | 2151 ft | 7 kts | 66° |
| 2026-04-26 09:48 | 43.91365 | 87.46844 | 2151 ft | 7 kts | 73° |
| 2026-04-26 09:49 | 43.91376 | 87.46893 | 2151 ft | 2 kts | 73° |
| 2026-04-26 09:49 | 43.91378 | 87.46900 | 2151 ft | 0 kts | 73° |